Rome, Italy
Current Conditions -  °F | °C
As of 8:45 AM on Friday 31 Oct 2014 (Local Time) from LIRA Reporting Station
Clear Clear  
Wind Chill: 11°   Ceiling: Unl
Heat Index: 11°   Visibility: 6mi
Dew Point:   Wind: 5mph
Humidity: 71%   Direction: 40°NE
Pressure: 30.18"   Gusts: NA
Location:  41.9°N, 12.48°E
Report Text: LIRA 310745Z 04004KT CAVOK 11/06 Q1022
Loading
Personal Weather Stations






























Interactive Weather Map
Tropical Storm Tracking
New forecast layout! Learn more

10-Day Weather Forecast

Advertisements
Track Severe Weather on mobile